Skidmore, Texas
Current Conditions -  °F | °C
As of 8:35 AM on Sunday 23 Nov 2014 (Local Time) from KBEA Reporting Station
Clear Clear  
Wind Chill: 60°   Ceiling: Unl
Heat Index: 60°   Visibility: 10mi
Dew Point: 57°   Wind: 7mph
Humidity: 90%   Direction: 240°WSW
Pressure: 29.74"   Gusts: NA
Location:  28.25°N, 97.69°W
Report Text: KBEA 231435Z AUTO 24006KT 10SM CLR 16/14 A2974 RMK AO2 T01580141
Loading
Personal Weather Stations






























Interactive Weather Map New forecast layout! Learn more

10-Day Weather Forecast

Advertisements
Track Severe Weather on mobile